sensor_id;sensor_type;location;lat;lon;timestamp;temperature;humidity
61201;DHT22;47065;52.898;6.992;2023-04-25T00:02:02;6.60;99.90
61201;DHT22;47065;52.898;6.992;2023-04-25T00:04:29;6.60;99.90
61201;DHT22;47065;52.898;6.992;2023-04-25T00:06:55;6.60;99.90
61201;DHT22;47065;52.898;6.992;2023-04-25T00:09:22;6.60;99.90
61201;DHT22;47065;52.898;6.992;2023-04-25T00:11:48;6.60;99.90
61201;DHT22;47065;52.898;6.992;2023-04-25T00:14:14;6.50;99.90
61201;DHT22;47065;52.898;6.992;2023-04-25T00:16:39;6.40;99.90
61201;DHT22;47065;52.898;6.992;2023-04-25T00:19:06;6.40;99.90
61201;DHT22;47065;52.898;6.992;2023-04-25T00:21:33;6.40;99.90
61201;DHT22;47065;52.898;6.992;2023-04-25T00:23:59;6.30;99.90
61201;DHT22;47065;52.898;6.992;2023-04-25T00:26:25;6.30;99.90
61201;DHT22;47065;52.898;6.992;2023-04-25T00:28:51;6.30;99.90
61201;DHT22;47065;52.898;6.992;2023-04-25T00:31:17;6.30;99.90
61201;DHT22;47065;52.898;6.992;2023-04-25T00:33:45;6.20;99.90
61201;DHT22;47065;52.898;6.992;2023-04-25T00:36:11;6.20;99.90
61201;DHT22;47065;52.898;6.992;2023-04-25T00:38:36;6.20;99.90
61201;DHT22;47065;52.898;6.992;2023-04-25T00:41:05;6.10;99.90
61201;DHT22;47065;52.898;6.992;2023-04-25T00:43:32;6.10;99.90
61201;DHT22;47065;52.898;6.992;2023-04-25T00:46:00;6.00;99.90
61201;DHT22;47065;52.898;6.992;2023-04-25T00:48:25;6.00;99.90
61201;DHT22;47065;52.898;6.992;2023-04-25T00:50:53;6.00;99.90
61201;DHT22;47065;52.898;6.992;2023-04-25T00:53:23;5.90;99.90
61201;DHT22;47065;52.898;6.992;2023-04-25T00:55:49;5.90;99.90
61201;DHT22;47065;52.898;6.992;2023-04-25T00:58:17;5.90;99.90
61201;DHT22;47065;52.898;6.992;2023-04-25T01:00:44;5.90;99.90
61201;DHT22;47065;52.898;6.992;2023-04-25T01:03:11;5.90;99.90
61201;DHT22;47065;52.898;6.992;2023-04-25T01:05:37;5.90;99.90
61201;DHT22;47065;52.898;6.992;2023-04-25T01:08:02;5.80;99.90
61201;DHT22;47065;52.898;6.992;2023-04-25T01:10:28;5.80;99.90
61201;DHT22;47065;52.898;6.992;2023-04-25T01:12:54;5.80;99.90
61201;DHT22;47065;52.898;6.992;2023-04-25T01:15:20;5.80;99.90
61201;DHT22;47065;52.898;6.992;2023-04-25T01:17:45;5.80;99.90
61201;DHT22;47065;52.898;6.992;2023-04-25T01:20:12;5.80;99.90
61201;DHT22;47065;52.898;6.992;2023-04-25T01:22:39;5.70;99.90
61201;DHT22;47065;52.898;6.992;2023-04-25T01:25:05;5.80;99.90
61201;DHT22;47065;52.898;6.992;2023-04-25T01:27:32;5.80;99.90
61201;DHT22;47065;52.898;6.992;2023-04-25T01:29:58;5.80;99.90
61201;DHT22;47065;52.898;6.992;2023-04-25T01:32:25;5.80;99.90
61201;DHT22;47065;52.898;6.992;2023-04-25T01:34:52;5.90;99.90
61201;DHT22;47065;52.898;6.992;2023-04-25T01:37:18;5.90;99.90
61201;DHT22;47065;52.898;6.992;2023-04-25T01:39:44;5.90;99.90
61201;DHT22;47065;52.898;6.992;2023-04-25T01:42:10;5.90;99.90
61201;DHT22;47065;52.898;6.992;2023-04-25T01:44:35;5.80;99.90
61201;DHT22;47065;52.898;6.992;2023-04-25T01:47:01;5.80;99.90
61201;DHT22;47065;52.898;6.992;2023-04-25T01:49:27;5.80;99.90
61201;DHT22;47065;52.898;6.992;2023-04-25T01:51:52;5.70;99.90
61201;DHT22;47065;52.898;6.992;2023-04-25T01:54:19;5.70;99.90
61201;DHT22;47065;52.898;6.992;2023-04-25T01:56:50;5.60;99.90
61201;DHT22;47065;52.898;6.992;2023-04-25T01:59:16;5.60;99.90
61201;DHT22;47065;52.898;6.992;2023-04-25T02:01:43;5.50;99.90
61201;DHT22;47065;52.898;6.992;2023-04-25T02:04:09;5.50;99.90
61201;DHT22;47065;52.898;6.992;2023-04-25T02:06:34;5.40;99.90
61201;DHT22;47065;52.898;6.992;2023-04-25T02:09:00;5.30;99.90
61201;DHT22;47065;52.898;6.992;2023-04-25T02:11:26;5.30;99.90
61201;DHT22;47065;52.898;6.992;2023-04-25T02:13:51;5.20;99.90
61201;DHT22;47065;52.898;6.992;2023-04-25T02:16:17;5.20;99.90
61201;DHT22;47065;52.898;6.992;2023-04-25T02:18:44;5.10;99.90
61201;DHT22;47065;52.898;6.992;2023-04-25T02:21:10;5.00;99.90
61201;DHT22;47065;52.898;6.992;2023-04-25T02:23:37;5.00;99.90
61201;DHT22;47065;52.898;6.992;2023-04-25T02:26:03;5.00;99.90
61201;DHT22;47065;52.898;6.992;2023-04-25T02:28:28;5.10;99.90
61201;DHT22;47065;52.898;6.992;2023-04-25T02:30:54;5.10;99.90
61201;DHT22;47065;52.898;6.992;2023-04-25T02:33:20;5.10;99.90
61201;DHT22;47065;52.898;6.992;2023-04-25T02:35:46;5.10;99.90
61201;DHT22;47065;52.898;6.992;2023-04-25T02:38:12;5.20;99.90
61201;DHT22;47065;52.898;6.992;2023-04-25T02:40:38;5.20;99.90
61201;DHT22;47065;52.898;6.992;2023-04-25T02:43:03;5.20;99.90
61201;DHT22;47065;52.898;6.992;2023-04-25T02:45:29;5.30;99.90
61201;DHT22;47065;52.898;6.992;2023-04-25T02:47:54;5.30;99.90
61201;DHT22;47065;52.898;6.992;2023-04-25T02:50:20;5.30;99.90
61201;DHT22;47065;52.898;6.992;2023-04-25T02:52:46;5.40;99.90
61201;DHT22;47065;52.898;6.992;2023-04-25T02:55:13;5.40;99.90
61201;DHT22;47065;52.898;6.992;2023-04-25T02:57:39;5.40;99.90
61201;DHT22;47065;52.898;6.992;2023-04-25T03:00:05;5.40;99.90
61201;DHT22;47065;52.898;6.992;2023-04-25T03:02:31;5.40;99.90
61201;DHT22;47065;52.898;6.992;2023-04-25T03:04:56;5.40;99.90
61201;DHT22;47065;52.898;6.992;2023-04-25T03:07:22;5.40;99.90
61201;DHT22;47065;52.898;6.992;2023-04-25T03:09:47;5.40;99.90
61201;DHT22;47065;52.898;6.992;2023-04-25T03:12:13;5.40;99.90
61201;DHT22;47065;52.898;6.992;2023-04-25T03:14:39;5.40;99.90
61201;DHT22;47065;52.898;6.992;2023-04-25T03:17:04;5.40;99.90
61201;DHT22;47065;52.898;6.992;2023-04-25T03:19:30;5.40;99.90
61201;DHT22;47065;52.898;6.992;2023-04-25T03:21:56;5.40;99.90
61201;DHT22;47065;52.898;6.992;2023-04-25T03:24:21;5.40;99.90
61201;DHT22;47065;52.898;6.992;2023-04-25T03:26:47;5.40;99.90
61201;DHT22;47065;52.898;6.992;2023-04-25T03:29:13;5.40;99.90
61201;DHT22;47065;52.898;6.992;2023-04-25T03:31:38;5.40;99.90
61201;DHT22;47065;52.898;6.992;2023-04-25T03:34:04;5.40;99.90
61201;DHT22;47065;52.898;6.992;2023-04-25T03:36:30;5.40;99.90
61201;DHT22;47065;52.898;6.992;2023-04-25T03:38:56;5.40;99.90
61201;DHT22;47065;52.898;6.992;2023-04-25T03:41:21;5.40;99.90
61201;DHT22;47065;52.898;6.992;2023-04-25T03:43:47;5.40;99.90
61201;DHT22;47065;52.898;6.992;2023-04-25T03:46:13;5.40;99.90
61201;DHT22;47065;52.898;6.992;2023-04-25T03:48:38;5.40;99.90
61201;DHT22;47065;52.898;6.992;2023-04-25T03:51:04;5.40;99.90
61201;DHT22;47065;52.898;6.992;2023-04-25T03:53:30;5.30;99.90
61201;DHT22;47065;52.898;6.992;2023-04-25T03:55:55;5.40;99.90
61201;DHT22;47065;52.898;6.992;2023-04-25T03:58:21;5.40;99.90
61201;DHT22;47065;52.898;6.992;2023-04-25T04:00:48;5.30;99.90
61201;DHT22;47065;52.898;6.992;2023-04-25T04:03:14;5.30;99.90
61201;DHT22;47065;52.898;6.992;2023-04-25T04:05:39;5.30;99.90
61201;DHT22;47065;52.898;6.992;2023-04-25T04:08:06;5.30;99.90
61201;DHT22;47065;52.898;6.992;2023-04-25T04:10:32;5.30;99.90
61201;DHT22;47065;52.898;6.992;2023-04-25T04:12:58;5.30;99.90
61201;DHT22;47065;52.898;6.992;2023-04-25T04:15:23;5.30;99.90
61201;DHT22;47065;52.898;6.992;2023-04-25T04:17:49;5.30;99.90
61201;DHT22;47065;52.898;6.992;2023-04-25T04:20:14;5.30;99.90
61201;DHT22;47065;52.898;6.992;2023-04-25T04:22:40;5.40;99.90
61201;DHT22;47065;52.898;6.992;2023-04-25T04:25:06;5.40;99.90
61201;DHT22;47065;52.898;6.992;2023-04-25T04:27:32;5.40;99.90
61201;DHT22;47065;52.898;6.992;2023-04-25T04:29:58;5.40;99.90
61201;DHT22;47065;52.898;6.992;2023-04-25T04:32:23;5.50;99.90
61201;DHT22;47065;52.898;6.992;2023-04-25T04:34:50;5.50;99.90
61201;DHT22;47065;52.898;6.992;2023-04-25T04:37:17;5.50;99.90
61201;DHT22;47065;52.898;6.992;2023-04-25T04:39:43;5.50;99.90
61201;DHT22;47065;52.898;6.992;2023-04-25T04:42:09;5.50;99.90
61201;DHT22;47065;52.898;6.992;2023-04-25T04:44:36;5.60;99.90
61201;DHT22;47065;52.898;6.992;2023-04-25T04:47:04;5.60;99.90
61201;DHT22;47065;52.898;6.992;2023-04-25T04:49:31;5.60;99.90
61201;DHT22;47065;52.898;6.992;2023-04-25T04:51:57;5.60;99.90
61201;DHT22;47065;52.898;6.992;2023-04-25T04:54:25;5.50;99.90
61201;DHT22;47065;52.898;6.992;2023-04-25T04:56:50;5.50;99.90
61201;DHT22;47065;52.898;6.992;2023-04-25T04:59:17;5.40;99.90
61201;DHT22;47065;52.898;6.992;2023-04-25T05:01:43;5.30;99.90
61201;DHT22;47065;52.898;6.992;2023-04-25T05:04:08;5.30;99.90
61201;DHT22;47065;52.898;6.992;2023-04-25T05:06:34;5.20;99.90
61201;DHT22;47065;52.898;6.992;2023-04-25T05:09:00;5.20;99.90
61201;DHT22;47065;52.898;6.992;2023-04-25T05:11:25;5.10;99.90
61201;DHT22;47065;52.898;6.992;2023-04-25T05:13:52;5.00;99.90
61201;DHT22;47065;52.898;6.992;2023-04-25T05:16:18;5.00;99.90
61201;DHT22;47065;52.898;6.992;2023-04-25T05:18:44;5.00;99.90
61201;DHT22;47065;52.898;6.992;2023-04-25T05:21:09;4.90;99.90
61201;DHT22;47065;52.898;6.992;2023-04-25T05:23:35;4.90;99.90
61201;DHT22;47065;52.898;6.992;2023-04-25T05:26:01;4.90;99.90
61201;DHT22;47065;52.898;6.992;2023-04-25T05:28:27;4.90;99.90
61201;DHT22;47065;52.898;6.992;2023-04-25T05:30:52;4.90;99.90
61201;DHT22;47065;52.898;6.992;2023-04-25T05:33:18;4.90;99.90
61201;DHT22;47065;52.898;6.992;2023-04-25T05:35:44;4.90;99.90
61201;DHT22;47065;52.898;6.992;2023-04-25T05:38:10;4.90;99.90
61201;DHT22;47065;52.898;6.992;2023-04-25T05:40:35;4.90;99.90
61201;DHT22;47065;52.898;6.992;2023-04-25T05:43:01;4.90;99.90
61201;DHT22;47065;52.898;6.992;2023-04-25T05:45:27;4.90;99.90
61201;DHT22;47065;52.898;6.992;2023-04-25T05:47:52;4.90;99.90
61201;DHT22;47065;52.898;6.992;2023-04-25T05:50:18;4.90;99.90
61201;DHT22;47065;52.898;6.992;2023-04-25T05:52:43;5.00;99.90
61201;DHT22;47065;52.898;6.992;2023-04-25T05:55:09;5.00;99.90
61201;DHT22;47065;52.898;6.992;2023-04-25T05:57:35;5.00;99.90
61201;DHT22;47065;52.898;6.992;2023-04-25T06:00:01;5.10;99.90
61201;DHT22;47065;52.898;6.992;2023-04-25T06:02:27;5.20;99.90
61201;DHT22;47065;52.898;6.992;2023-04-25T06:04:52;5.30;99.90
61201;DHT22;47065;52.898;6.992;2023-04-25T06:07:19;5.40;99.90
61201;DHT22;47065;52.898;6.992;2023-04-25T06:09:45;5.50;99.90
61201;DHT22;47065;52.898;6.992;2023-04-25T06:12:11;5.40;99.90
61201;DHT22;47065;52.898;6.992;2023-04-25T06:14:37;5.40;99.90
61201;DHT22;47065;52.898;6.992;2023-04-25T06:17:03;5.40;99.90
61201;DHT22;47065;52.898;6.992;2023-04-25T06:19:34;5.30;99.90
61201;DHT22;47065;52.898;6.992;2023-04-25T06:22:00;5.20;99.90
61201;DHT22;47065;52.898;6.992;2023-04-25T06:24:26;5.10;99.90
61201;DHT22;47065;52.898;6.992;2023-04-25T06:26:52;5.10;99.90
61201;DHT22;47065;52.898;6.992;2023-04-25T06:29:18;5.00;99.90
61201;DHT22;47065;52.898;6.992;2023-04-25T06:31:43;5.00;99.90
61201;DHT22;47065;52.898;6.992;2023-04-25T06:34:09;4.90;99.90
61201;DHT22;47065;52.898;6.992;2023-04-25T06:36:35;5.00;99.90
61201;DHT22;47065;52.898;6.992;2023-04-25T06:39:00;5.00;99.90
61201;DHT22;47065;52.898;6.992;2023-04-25T06:41:26;5.10;99.90
61201;DHT22;47065;52.898;6.992;2023-04-25T06:43:51;5.10;99.90
61201;DHT22;47065;52.898;6.992;2023-04-25T06:46:17;5.20;99.90
61201;DHT22;47065;52.898;6.992;2023-04-25T06:48:42;5.30;99.90
61201;DHT22;47065;52.898;6.992;2023-04-25T06:51:08;5.40;99.90
61201;DHT22;47065;52.898;6.992;2023-04-25T06:53:34;5.50;99.90
61201;DHT22;47065;52.898;6.992;2023-04-25T06:55:59;5.60;99.90
61201;DHT22;47065;52.898;6.992;2023-04-25T06:58:25;5.70;99.90
61201;DHT22;47065;52.898;6.992;2023-04-25T07:00:51;5.90;99.90
61201;DHT22;47065;52.898;6.992;2023-04-25T07:03:17;6.00;99.90
61201;DHT22;47065;52.898;6.992;2023-04-25T07:05:43;6.20;99.90
61201;DHT22;47065;52.898;6.992;2023-04-25T07:08:09;6.30;99.90
61201;DHT22;47065;52.898;6.992;2023-04-25T07:10:34;6.40;99.90
61201;DHT22;47065;52.898;6.992;2023-04-25T07:13:00;6.40;99.90
61201;DHT22;47065;52.898;6.992;2023-04-25T07:15:26;6.30;99.90
61201;DHT22;47065;52.898;6.992;2023-04-25T07:17:51;6.30;99.90
61201;DHT22;47065;52.898;6.992;2023-04-25T07:20:17;6.30;99.90
61201;DHT22;47065;52.898;6.992;2023-04-25T07:22:42;6.30;99.90
61201;DHT22;47065;52.898;6.992;2023-04-25T07:25:09;6.30;99.90
61201;DHT22;47065;52.898;6.992;2023-04-25T07:27:35;6.40;99.90
61201;DHT22;47065;52.898;6.992;2023-04-25T07:30:00;6.50;99.90
61201;DHT22;47065;52.898;6.992;2023-04-25T07:32:26;6.50;99.90
61201;DHT22;47065;52.898;6.992;2023-04-25T07:34:52;6.60;99.90
61201;DHT22;47065;52.898;6.992;2023-04-25T07:37:17;6.70;99.90
61201;DHT22;47065;52.898;6.992;2023-04-25T07:39:44;6.90;99.90
61201;DHT22;47065;52.898;6.992;2023-04-25T07:42:11;6.90;99.90
61201;DHT22;47065;52.898;6.992;2023-04-25T07:44:37;7.10;99.90
61201;DHT22;47065;52.898;6.992;2023-04-25T07:47:09;7.30;99.90
61201;DHT22;47065;52.898;6.992;2023-04-25T07:49:38;7.40;99.90
61201;DHT22;47065;52.898;6.992;2023-04-25T07:52:04;7.50;99.90
61201;DHT22;47065;52.898;6.992;2023-04-25T07:54:31;7.60;99.90
61201;DHT22;47065;52.898;6.992;2023-04-25T07:56:58;7.70;99.90
61201;DHT22;47065;52.898;6.992;2023-04-25T07:59:24;7.60;99.90
61201;DHT22;47065;52.898;6.992;2023-04-25T08:01:50;7.40;99.90
61201;DHT22;47065;52.898;6.992;2023-04-25T08:04:16;7.30;99.90
61201;DHT22;47065;52.898;6.992;2023-04-25T08:06:42;7.10;99.90
61201;DHT22;47065;52.898;6.992;2023-04-25T08:09:08;7.00;99.90
61201;DHT22;47065;52.898;6.992;2023-04-25T08:11:37;6.90;99.90
61201;DHT22;47065;52.898;6.992;2023-04-25T08:14:02;6.90;99.90
61201;DHT22;47065;52.898;6.992;2023-04-25T08:16:28;7.00;99.90
61201;DHT22;47065;52.898;6.992;2023-04-25T08:18:54;7.00;99.90
61201;DHT22;47065;52.898;6.992;2023-04-25T08:21:20;7.10;99.90
61201;DHT22;47065;52.898;6.992;2023-04-25T08:23:45;7.30;99.90
61201;DHT22;47065;52.898;6.992;2023-04-25T08:26:11;7.60;99.90
61201;DHT22;47065;52.898;6.992;2023-04-25T08:28:37;7.90;99.90
61201;DHT22;47065;52.898;6.992;2023-04-25T08:31:03;8.30;99.90
61201;DHT22;47065;52.898;6.992;2023-04-25T08:33:29;8.60;99.90
61201;DHT22;47065;52.898;6.992;2023-04-25T08:35:55;8.70;99.90
61201;DHT22;47065;52.898;6.992;2023-04-25T08:38:21;8.70;99.90
61201;DHT22;47065;52.898;6.992;2023-04-25T08:40:50;8.80;99.90
61201;DHT22;47065;52.898;6.992;2023-04-25T08:43:19;8.80;99.90
61201;DHT22;47065;52.898;6.992;2023-04-25T08:45:45;8.90;99.90
61201;DHT22;47065;52.898;6.992;2023-04-25T08:48:16;8.90;99.90
61201;DHT22;47065;52.898;6.992;2023-04-25T08:50:52;8.80;99.90
61201;DHT22;47065;52.898;6.992;2023-04-25T08:53:25;8.70;99.90
61201;DHT22;47065;52.898;6.992;2023-04-25T08:55:53;9.20;99.90
61201;DHT22;47065;52.898;6.992;2023-04-25T08:58:19;9.80;99.90
61201;DHT22;47065;52.898;6.992;2023-04-25T09:00:46;10.50;99.90
61201;DHT22;47065;52.898;6.992;2023-04-25T09:03:13;10.90;99.90
61201;DHT22;47065;52.898;6.992;2023-04-25T09:05:40;11.50;99.90
61201;DHT22;47065;52.898;6.992;2023-04-25T09:08:06;11.60;99.90
61201;DHT22;47065;52.898;6.992;2023-04-25T09:10:32;11.70;99.90
61201;DHT22;47065;52.898;6.992;2023-04-25T09:13:08;11.40;94.30
61201;DHT22;47065;52.898;6.992;2023-04-25T09:15:55;10.90;97.90
61201;DHT22;47065;52.898;6.992;2023-04-25T09:18:32;10.70;99.90
61201;DHT22;47065;52.898;6.992;2023-04-25T09:21:07;11.40;99.90
61201;DHT22;47065;52.898;6.992;2023-04-25T09:23:41;11.50;99.90
61201;DHT22;47065;52.898;6.992;2023-04-25T09:26:07;10.90;99.90
61201;DHT22;47065;52.898;6.992;2023-04-25T09:28:34;10.20;99.90
61201;DHT22;47065;52.898;6.992;2023-04-25T09:31:01;9.50;99.90
61201;DHT22;47065;52.898;6.992;2023-04-25T09:33:33;8.80;99.90
61201;DHT22;47065;52.898;6.992;2023-04-25T09:36:04;8.30;99.90
61201;DHT22;47065;52.898;6.992;2023-04-25T09:38:32;8.00;99.90
61201;DHT22;47065;52.898;6.992;2023-04-25T09:40:58;7.80;99.90
61201;DHT22;47065;52.898;6.992;2023-04-25T09:43:24;7.80;99.90
61201;DHT22;47065;52.898;6.992;2023-04-25T09:45:51;7.80;99.90
61201;DHT22;47065;52.898;6.992;2023-04-25T09:48:19;8.00;99.90
61201;DHT22;47065;52.898;6.992;2023-04-25T09:53:33;8.70;99.90
61201;DHT22;47065;52.898;6.992;2023-04-25T09:56:00;9.10;99.90
61201;DHT22;47065;52.898;6.992;2023-04-25T09:58:29;9.20;99.90
61201;DHT22;47065;52.898;6.992;2023-04-25T10:01:03;9.10;99.90
61201;DHT22;47065;52.898;6.992;2023-04-25T10:03:30;9.10;99.90
61201;DHT22;47065;52.898;6.992;2023-04-25T10:05:59;9.10;99.90
61201;DHT22;47065;52.898;6.992;2023-04-25T10:08:31;9.20;99.90
61201;DHT22;47065;52.898;6.992;2023-04-25T10:11:02;9.30;99.90
61201;DHT22;47065;52.898;6.992;2023-04-25T10:13:32;9.50;99.90
61201;DHT22;47065;52.898;6.992;2023-04-25T10:15:59;9.70;99.90
61201;DHT22;47065;52.898;6.992;2023-04-25T10:18:26;9.90;99.90
61201;DHT22;47065;52.898;6.992;2023-04-25T10:21:01;10.10;99.90
61201;DHT22;47065;52.898;6.992;2023-04-25T10:23:29;10.20;99.90
61201;DHT22;47065;52.898;6.992;2023-04-25T10:25:56;10.40;99.90
61201;DHT22;47065;52.898;6.992;2023-04-25T10:28:22;10.40;99.90
61201;DHT22;47065;52.898;6.992;2023-04-25T10:31:00;10.50;99.90
61201;DHT22;47065;52.898;6.992;2023-04-25T10:33:34;10.60;99.90
61201;DHT22;47065;52.898;6.992;2023-04-25T10:36:21;10.50;99.90
61201;DHT22;47065;52.898;6.992;2023-04-25T10:38:49;10.10;99.90
61201;DHT22;47065;52.898;6.992;2023-04-25T10:41:19;9.20;99.90
61201;DHT22;47065;52.898;6.992;2023-04-25T10:43:49;8.10;99.90
61201;DHT22;47065;52.898;6.992;2023-04-25T10:46:29;7.20;99.90
61201;DHT22;47065;52.898;6.992;2023-04-25T10:48:58;6.60;99.90
61201;DHT22;47065;52.898;6.992;2023-04-25T10:51:32;6.30;99.90
61201;DHT22;47065;52.898;6.992;2023-04-25T10:54:05;6.10;99.90
61201;DHT22;47065;52.898;6.992;2023-04-25T10:59:18;6.20;99.90
61201;DHT22;47065;52.898;6.992;2023-04-25T11:01:51;6.30;99.90
61201;DHT22;47065;52.898;6.992;2023-04-25T11:04:31;6.40;99.90
61201;DHT22;47065;52.898;6.992;2023-04-25T11:09:26;6.80;99.90
61201;DHT22;47065;52.898;6.992;2023-04-25T11:11:56;7.20;99.90
61201;DHT22;47065;52.898;6.992;2023-04-25T11:14:22;7.60;99.90
61201;DHT22;47065;52.898;6.992;2023-04-25T11:16:57;8.00;99.90
61201;DHT22;47065;52.898;6.992;2023-04-25T11:19:24;8.40;99.90
61201;DHT22;47065;52.898;6.992;2023-04-25T11:21:50;8.90;99.90
61201;DHT22;47065;52.898;6.992;2023-04-25T11:24:16;9.20;99.90
61201;DHT22;47065;52.898;6.992;2023-04-25T11:26:43;9.40;99.90
61201;DHT22;47065;52.898;6.992;2023-04-25T11:29:09;9.30;99.90
61201;DHT22;47065;52.898;6.992;2023-04-25T11:31:34;9.20;99.90
61201;DHT22;47065;52.898;6.992;2023-04-25T11:34:00;9.00;99.90
61201;DHT22;47065;52.898;6.992;2023-04-25T11:36:26;8.80;99.90
61201;DHT22;47065;52.898;6.992;2023-04-25T11:38:55;8.60;99.90
61201;DHT22;47065;52.898;6.992;2023-04-25T11:41:21;8.50;99.90
61201;DHT22;47065;52.898;6.992;2023-04-25T11:43:48;8.70;99.90
61201;DHT22;47065;52.898;6.992;2023-04-25T11:46:14;8.80;99.90
61201;DHT22;47065;52.898;6.992;2023-04-25T11:48:41;8.90;99.90
61201;DHT22;47065;52.898;6.992;2023-04-25T11:51:07;8.90;99.90
61201;DHT22;47065;52.898;6.992;2023-04-25T11:53:33;8.90;99.90
61201;DHT22;47065;52.898;6.992;2023-04-25T11:55:59;9.00;99.90
61201;DHT22;47065;52.898;6.992;2023-04-25T11:58:26;9.00;99.90
61201;DHT22;47065;52.898;6.992;2023-04-25T12:00:52;9.00;99.90
61201;DHT22;47065;52.898;6.992;2023-04-25T12:03:18;8.60;99.90
61201;DHT22;47065;52.898;6.992;2023-04-25T12:05:45;8.00;99.90
61201;DHT22;47065;52.898;6.992;2023-04-25T12:08:12;7.40;99.90
61201;DHT22;47065;52.898;6.992;2023-04-25T12:10:40;6.90;99.90
61201;DHT22;47065;52.898;6.992;2023-04-25T12:13:23;6.60;99.90
61201;DHT22;47065;52.898;6.992;2023-04-25T12:15:49;6.40;99.90
61201;DHT22;47065;52.898;6.992;2023-04-25T12:18:19;6.40;99.90
61201;DHT22;47065;52.898;6.992;2023-04-25T12:20:45;6.50;99.90
61201;DHT22;47065;52.898;6.992;2023-04-25T12:23:10;6.60;99.90
61201;DHT22;47065;52.898;6.992;2023-04-25T12:25:42;6.80;99.90
61201;DHT22;47065;52.898;6.992;2023-04-25T12:28:18;7.00;99.90
61201;DHT22;47065;52.898;6.992;2023-04-25T12:31:04;7.20;99.90
61201;DHT22;47065;52.898;6.992;2023-04-25T12:33:35;7.60;99.90
61201;DHT22;47065;52.898;6.992;2023-04-25T12:36:05;7.90;99.90
61201;DHT22;47065;52.898;6.992;2023-04-25T12:38:39;8.20;99.90
61201;DHT22;47065;52.898;6.992;2023-04-25T12:41:06;8.60;99.90
61201;DHT22;47065;52.898;6.992;2023-04-25T12:43:32;9.00;99.90
61201;DHT22;47065;52.898;6.992;2023-04-25T12:45:57;9.20;99.90
61201;DHT22;47065;52.898;6.992;2023-04-25T12:48:23;9.10;99.90
61201;DHT22;47065;52.898;6.992;2023-04-25T12:50:50;9.00;99.90
61201;DHT22;47065;52.898;6.992;2023-04-25T12:53:18;9.00;99.90
61201;DHT22;47065;52.898;6.992;2023-04-25T12:55:44;9.00;99.90
61201;DHT22;47065;52.898;6.992;2023-04-25T12:58:12;9.20;99.90
61201;DHT22;47065;52.898;6.992;2023-04-25T13:00:38;9.40;99.90
61201;DHT22;47065;52.898;6.992;2023-04-25T13:03:04;9.60;99.90
61201;DHT22;47065;52.898;6.992;2023-04-25T13:05:30;9.80;99.90
61201;DHT22;47065;52.898;6.992;2023-04-25T13:07:56;10.00;99.90
61201;DHT22;47065;52.898;6.992;2023-04-25T13:10:21;10.20;99.90
61201;DHT22;47065;52.898;6.992;2023-04-25T13:12:47;10.40;99.90
61201;DHT22;47065;52.898;6.992;2023-04-25T13:15:13;10.40;99.90
61201;DHT22;47065;52.898;6.992;2023-04-25T13:17:41;10.40;99.90
61201;DHT22;47065;52.898;6.992;2023-04-25T13:20:07;10.20;99.90
61201;DHT22;47065;52.898;6.992;2023-04-25T13:22:38;9.80;99.90
61201;DHT22;47065;52.898;6.992;2023-04-25T13:25:05;9.40;99.90
61201;DHT22;47065;52.898;6.992;2023-04-25T13:27:32;9.20;99.90
61201;DHT22;47065;52.898;6.992;2023-04-25T13:29:59;9.10;99.90
61201;DHT22;47065;52.898;6.992;2023-04-25T13:32:26;9.20;99.90
61201;DHT22;47065;52.898;6.992;2023-04-25T13:34:53;9.30;99.90
61201;DHT22;47065;52.898;6.992;2023-04-25T13:37:19;9.30;99.90
61201;DHT22;47065;52.898;6.992;2023-04-25T13:39:44;9.20;99.90
61201;DHT22;47065;52.898;6.992;2023-04-25T13:42:10;9.10;99.90
61201;DHT22;47065;52.898;6.992;2023-04-25T13:44:36;8.90;99.90
61201;DHT22;47065;52.898;6.992;2023-04-25T13:47:02;8.70;99.90
61201;DHT22;47065;52.898;6.992;2023-04-25T13:49:28;8.60;99.90
61201;DHT22;47065;52.898;6.992;2023-04-25T13:51:53;8.50;99.90
61201;DHT22;47065;52.898;6.992;2023-04-25T13:54:19;8.50;99.90
61201;DHT22;47065;52.898;6.992;2023-04-25T13:56:45;8.50;99.90
61201;DHT22;47065;52.898;6.992;2023-04-25T13:59:11;8.60;99.90
61201;DHT22;47065;52.898;6.992;2023-04-25T14:01:36;8.80;99.90
61201;DHT22;47065;52.898;6.992;2023-04-25T14:04:02;9.20;99.90
61201;DHT22;47065;52.898;6.992;2023-04-25T14:06:31;9.40;99.90
61201;DHT22;47065;52.898;6.992;2023-04-25T14:08:57;9.60;99.90
61201;DHT22;47065;52.898;6.992;2023-04-25T14:11:23;9.60;99.90
61201;DHT22;47065;52.898;6.992;2023-04-25T14:13:48;9.60;99.90
61201;DHT22;47065;52.898;6.992;2023-04-25T14:16:15;9.50;99.90
61201;DHT22;47065;52.898;6.992;2023-04-25T14:18:41;9.40;99.90
61201;DHT22;47065;52.898;6.992;2023-04-25T14:21:07;9.30;99.90
61201;DHT22;47065;52.898;6.992;2023-04-25T14:23:32;9.30;99.90
61201;DHT22;47065;52.898;6.992;2023-04-25T14:25:58;9.20;99.90
61201;DHT22;47065;52.898;6.992;2023-04-25T14:28:23;9.20;99.90
61201;DHT22;47065;52.898;6.992;2023-04-25T14:30:49;9.10;99.90
61201;DHT22;47065;52.898;6.992;2023-04-25T14:33:15;9.00;99.90
61201;DHT22;47065;52.898;6.992;2023-04-25T14:35:40;9.00;99.90
61201;DHT22;47065;52.898;6.992;2023-04-25T14:38:06;9.20;99.90
61201;DHT22;47065;52.898;6.992;2023-04-25T14:40:33;9.40;99.90
61201;DHT22;47065;52.898;6.992;2023-04-25T14:42:59;9.40;99.90
61201;DHT22;47065;52.898;6.992;2023-04-25T14:45:24;9.20;99.90
61201;DHT22;47065;52.898;6.992;2023-04-25T14:47:50;8.90;99.90
61201;DHT22;47065;52.898;6.992;2023-04-25T14:50:16;8.70;99.90
61201;DHT22;47065;52.898;6.992;2023-04-25T14:52:42;8.50;99.90
61201;DHT22;47065;52.898;6.992;2023-04-25T14:55:08;8.30;99.90
61201;DHT22;47065;52.898;6.992;2023-04-25T14:57:34;8.10;99.90
61201;DHT22;47065;52.898;6.992;2023-04-25T15:00:00;8.00;99.90
61201;DHT22;47065;52.898;6.992;2023-04-25T15:02:28;7.90;99.90
61201;DHT22;47065;52.898;6.992;2023-04-25T15:04:53;7.90;99.90
61201;DHT22;47065;52.898;6.992;2023-04-25T15:07:21;7.80;99.90
61201;DHT22;47065;52.898;6.992;2023-04-25T15:09:47;7.90;99.90
61201;DHT22;47065;52.898;6.992;2023-04-25T15:12:14;8.10;99.90
61201;DHT22;47065;52.898;6.992;2023-04-25T15:14:40;8.20;99.90
61201;DHT22;47065;52.898;6.992;2023-04-25T15:17:05;8.50;99.90
61201;DHT22;47065;52.898;6.992;2023-04-25T15:19:31;8.80;99.90
61201;DHT22;47065;52.898;6.992;2023-04-25T15:21:58;9.10;99.90
61201;DHT22;47065;52.898;6.992;2023-04-25T15:24:26;9.20;99.90
61201;DHT22;47065;52.898;6.992;2023-04-25T15:26:52;9.30;99.90
61201;DHT22;47065;52.898;6.992;2023-04-25T15:29:17;9.30;99.90
61201;DHT22;47065;52.898;6.992;2023-04-25T15:31:43;9.20;99.90
61201;DHT22;47065;52.898;6.992;2023-04-25T15:34:09;9.00;99.90
61201;DHT22;47065;52.898;6.992;2023-04-25T15:36:34;8.90;99.90
61201;DHT22;47065;52.898;6.992;2023-04-25T15:39:00;8.80;99.90
61201;DHT22;47065;52.898;6.992;2023-04-25T15:41:26;8.90;99.90
61201;DHT22;47065;52.898;6.992;2023-04-25T15:43:52;8.90;99.90
61201;DHT22;47065;52.898;6.992;2023-04-25T15:46:18;9.00;99.90
61201;DHT22;47065;52.898;6.992;2023-04-25T15:48:44;9.10;99.90
61201;DHT22;47065;52.898;6.992;2023-04-25T15:51:10;9.20;99.90